Terminal Aerodrome Forecast
Issued by NWS

Home | Current Version | Previous Version | Text Only | Print | Product List | Glossary On
Versions: 1 2 3 4 5 6 7 8 9 10 11 12
000
FTUS44 KLIX 211128
TAFMSY
TAF
KMSY 211128Z 2112/2218 VRB04KT P6SM SCT020
     FM211700 02005KT P6SM VCTS FEW030CB
     FM212100 07007KT P6SM FEW040 SCT100 PROB30 2121/2202 4SM TSRA
      BKN040CB
     FM220300 VRB04KT P6SM FEW025 SCT110=

USA.gov is the U.S. government's official web portal to all federal, state and local government web resources and services.